Time;durP1;ratioP1;P1;durP2;ratioP2;P2;SDS_P1;SDS_P2;PMS_P1;PMS_P2;Temp;Humidity;BMP_temperature;BMP_pressure;BME280_temperature;BME280_humidity;BME280_pressure;Samples;Min_cycle;Max_cycle;Signal;HPM_P1;HPM_P2
2022/04/05 00:01:29;;;;;;;20.65;18.45;;;;;;;;;;4936355;29;20052;-68
2022/04/05 00:04:00;;;;;;;21.77;19.67;;;;;;;;;;4935769;29;20091;-68
2022/04/05 00:06:30;;;;;;;23.25;20.27;;;;;;;;;;4936209;28;20047;-68
2022/04/05 00:08:57;;;;;;;20.17;18.15;;;;;;;;;;4935529;29;20478;-68
2022/04/05 00:11:27;;;;;;;22.52;19.33;;;;;;;;;;4954680;29;20051;-68
2022/04/05 00:13:56;;;;;;;23.45;20.38;;;;;;;;;;4954463;28;20082;-68
2022/04/05 00:16:26;;;;;;;21.50;19.38;;;;;;;;;;4936366;29;20055;-68
2022/04/05 00:18:57;;;;;;;21.60;19.38;;;;;;;;;;4939142;28;20136;-68
2022/04/05 00:21:26;;;;;;;22.52;18.83;;;;;;;;;;4939580;28;20407;-68
2022/04/05 00:23:55;;;;;;;34.63;26.75;;;;;;;;;;4939341;29;20480;-68
2022/04/05 00:26:23;;;;;;;21.45;19.13;;;;;;;;;;4938961;29;20497;-68
2022/04/05 00:28:52;;;;;;;20.77;18.58;;;;;;;;;;4938749;28;20415;-68
2022/04/05 00:31:21;;;;;;;23.02;20.58;;;;;;;;;;4939007;29;20075;-68
2022/04/05 00:33:52;;;;;;;21.10;18.90;;;;;;;;;;4938710;28;20415;-67
2022/04/05 00:36:20;;;;;;;21.58;17.75;;;;;;;;;;4938904;29;20060;-68
2022/04/05 00:38:50;;;;;;;19.20;17.20;;;;;;;;;;4938652;29;20052;-68
2022/04/05 00:41:19;;;;;;;21.80;19.58;;;;;;;;;;4938645;28;20068;-68
2022/04/05 00:43:47;;;;;;;20.95;18.27;;;;;;;;;;4938471;29;20487;-68
2022/04/05 00:46:17;;;;;;;21.33;19.33;;;;;;;;;;4936938;29;20443;-68
2022/04/05 00:48:56;;;;;;;21.30;19.20;;;;;;;;;;4938564;29;20056;-71
2022/04/05 00:51:25;;;;;;;20.70;18.02;;;;;;;;;;4947095;29;20048;-72
2022/04/05 00:53:55;;;;;;;21.67;19.58;;;;;;;;;;4938907;28;20064;-72
2022/04/05 00:56:28;;;;;;;20.45;18.27;;;;;;;;;;4939771;28;20059;-72
2022/04/05 00:58:59;;;;;;;19.77;17.48;;;;;;;;;;4957336;28;20142;-72
2022/04/05 01:01:28;;;;;;;20.58;18.48;;;;;;;;;;4958095;28;20105;-72
2022/04/05 01:03:57;;;;;;;20.38;18.40;;;;;;;;;;4938603;28;20055;-72
2022/04/05 01:06:32;;;;;;;20.85;18.65;;;;;;;;;;4938148;29;20132;-72
2022/04/05 01:09:01;;;;;;;19.63;16.70;;;;;;;;;;4937184;29;20047;-72
2022/04/05 01:11:30;;;;;;;23.00;18.65;;;;;;;;;;4938187;29;20048;-72
2022/04/05 01:14:00;;;;;;;20.88;18.30;;;;;;;;;;4937862;28;20055;-72
2022/04/05 01:16:29;;;;;;;20.25;18.23;;;;;;;;;;4938379;28;20058;-72
2022/04/05 01:18:58;;;;;;;21.17;19.13;;;;;;;;;;4938180;28;20134;-72
2022/04/05 01:21:28;;;;;;;20.95;18.75;;;;;;;;;;4938174;29;20119;-72
2022/04/05 01:24:13;;;;;;;22.73;20.33;;;;;;;;;;4937529;29;20054;-72
2022/04/05 01:26:53;;;;;;;22.25;19.63;;;;;;;;;;4938440;28;20110;-72
2022/04/05 01:29:24;;;;;;;20.58;18.05;;;;;;;;;;4935455;29;20455;-72
2022/04/05 01:32:05;;;;;;;19.90;17.83;;;;;;;;;;4937772;29;20563;-72
2022/04/05 01:34:37;;;;;;;19.70;17.65;;;;;;;;;;4937212;29;20103;-72
2022/04/05 01:37:08;;;;;;;19.58;17.42;;;;;;;;;;4937882;28;20390;-72
2022/04/05 01:39:40;;;;;;;20.55;17.75;;;;;;;;;;4943066;29;20469;-72
2022/04/05 01:42:13;;;;;;;21.08;17.75;;;;;;;;;;4937428;28;20103;-72
2022/04/05 01:44:43;;;;;;;18.70;16.75;;;;;;;;;;4937865;28;20052;-72
2022/04/05 01:47:32;;;;;;;17.73;15.98;;;;;;;;;;4937400;28;20534;-72
2022/04/05 01:50:01;;;;;;;18.13;16.33;;;;;;;;;;4937180;29;20059;-72
2022/04/05 01:52:29;;;;;;;16.95;15.18;;;;;;;;;;4936331;29;20135;-72
2022/04/05 01:54:58;;;;;;;17.88;16.13;;;;;;;;;;4937693;29;20064;-72
2022/04/05 01:57:27;;;;;;;17.77;15.73;;;;;;;;;;4937498;28;20062;-72
2022/04/05 01:59:56;;;;;;;17.70;15.43;;;;;;;;;;4937492;28;20131;-72
2022/04/05 02:02:23;;;;;;;19.02;17.13;;;;;;;;;;4937242;28;20051;-72
2022/04/05 02:04:52;;;;;;;19.67;16.23;;;;;;;;;;4937257;29;20043;-72
2022/04/05 02:07:22;;;;;;;20.35;18.23;;;;;;;;;;4937442;29;20419;-68
2022/04/05 02:09:52;;;;;;;19.23;17.33;;;;;;;;;;4937031;29;20059;-68
2022/04/05 02:12:21;;;;;;;21.50;17.75;;;;;;;;;;4937150;28;20054;-68
2022/04/05 02:14:50;;;;;;;20.90;18.75;;;;;;;;;;4936849;29;20055;-67
2022/04/05 02:17:26;;;;;;;22.45;20.15;;;;;;;;;;4936424;29;20055;-68
2022/04/05 02:19:58;;;;;;;21.05;18.95;;;;;;;;;;4935537;29;20048;-67
2022/04/05 02:22:27;;;;;;;23.13;20.73;;;;;;;;;;4936759;28;20063;-67
2022/04/05 02:25:03;;;;;;;23.73;20.30;;;;;;;;;;4951524;28;20054;-67
2022/04/05 02:27:41;;;;;;;22.42;20.10;;;;;;;;;;4942587;29;20093;-67
2022/04/05 02:30:16;;;;;;;22.33;19.98;;;;;;;;;;4958285;28;20562;-68
2022/04/05 02:32:47;;;;;;;21.17;19.13;;;;;;;;;;4954690;28;20046;-68
2022/04/05 02:35:15;;;;;;;19.15;16.95;;;;;;;;;;4955254;28;20481;-67
2022/04/05 02:37:44;;;;;;;18.98;17.08;;;;;;;;;;4953473;28;20059;-67
2022/04/05 02:40:17;;;;;;;23.48;17.88;;;;;;;;;;4950921;28;20511;-67
2022/04/05 02:42:47;;;;;;;18.67;16.83;;;;;;;;;;4968781;28;20047;-68
2022/04/05 02:45:17;;;;;;;19.30;17.40;;;;;;;;;;4954551;28;20058;-68
2022/04/05 02:47:51;;;;;;;19.40;17.50;;;;;;;;;;4955515;28;20075;-67
2022/04/05 02:50:21;;;;;;;20.42;18.40;;;;;;;;;;4954128;28;20130;-67
2022/04/05 02:52:53;;;;;;;21.10;17.97;;;;;;;;;;4955551;28;20039;-67
2022/04/05 02:55:23;;;;;;;20.60;18.48;;;;;;;;;;4954318;28;20051;-67
2022/04/05 02:57:55;;;;;;;20.40;18.40;;;;;;;;;;4951877;28;20133;-67
2022/04/05 03:00:32;;;;;;;21.38;18.73;;;;;;;;;;4935302;29;20063;-68
2022/04/05 03:03:09;;;;;;;22.42;18.60;;;;;;;;;;4946074;29;20047;-67
2022/04/05 03:05:44;;;;;;;22.00;19.08;;;;;;;;;;4950895;28;20048;-67
2022/04/05 03:08:13;;;;;;;24.20;19.63;;;;;;;;;;4951331;28;20408;-68
2022/04/05 03:10:42;;;;;;;20.48;18.42;;;;;;;;;;4938160;29;20051;-68
2022/04/05 03:13:12;;;;;;;25.45;19.17;;;;;;;;;;4935977;28;20071;-68
2022/04/05 03:15:41;;;;;;;22.25;19.65;;;;;;;;;;4941529;29;20047;-68
2022/04/05 03:18:10;;;;;;;25.23;22.63;;;;;;;;;;4954564;28;20448;-68
2022/04/05 03:20:40;;;;;;;25.10;22.55;;;;;;;;;;4949819;28;20048;-68
2022/04/05 03:23:09;;;;;;;22.38;20.02;;;;;;;;;;4936832;29;20109;-68
2022/04/05 03:25:38;;;;;;;26.08;23.35;;;;;;;;;;4935798;29;20059;-67
2022/04/05 03:28:07;;;;;;;27.30;23.02;;;;;;;;;;4936185;29;20043;-67
2022/04/05 03:30:35;;;;;;;23.52;21.02;;;;;;;;;;4941505;29;20057;-67
2022/04/05 03:33:06;;;;;;;22.25;20.05;;;;;;;;;;4954157;28;20102;-68
2022/04/05 03:35:36;;;;;;;26.65;23.70;;;;;;;;;;4937296;29;20047;-68
2022/04/05 03:38:04;;;;;;;25.70;23.20;;;;;;;;;;4934886;29;20059;-68
2022/04/05 03:40:35;;;;;;;28.25;25.10;;;;;;;;;;4936338;29;20059;-68
2022/04/05 03:43:11;;;;;;;27.10;24.25;;;;;;;;;;4936032;29;20567;-67
2022/04/05 03:45:41;;;;;;;28.00;25.10;;;;;;;;;;4950829;28;20111;-67
2022/04/05 03:48:10;;;;;;;28.10;25.20;;;;;;;;;;4919360;29;20051;-67
2022/04/05 03:50:38;;;;;;;26.77;23.65;;;;;;;;;;4951156;28;20518;-68
2022/04/05 03:53:07;;;;;;;24.52;21.98;;;;;;;;;;4938092;29;20487;-68
2022/04/05 03:55:36;;;;;;;24.88;21.67;;;;;;;;;;4954343;29;20473;-68
2022/04/05 03:58:11;;;;;;;27.17;22.58;;;;;;;;;;4938766;29;20448;-70
2022/04/05 04:00:42;;;;;;;24.52;22.00;;;;;;;;;;4954156;28;20044;-70
2022/04/05 04:03:18;;;;;;;24.77;22.23;;;;;;;;;;4955119;29;20055;-70
2022/04/05 04:05:51;;;;;;;23.88;21.60;;;;;;;;;;4954610;28;20053;-67
2022/04/05 04:08:23;;;;;;;22.92;20.58;;;;;;;;;;4954246;28;20051;-67
2022/04/05 04:10:55;;;;;;;20.65;18.30;;;;;;;;;;4938180;29;20468;-67
2022/04/05 04:13:27;;;;;;;21.30;19.08;;;;;;;;;;4953655;28;20059;-67
2022/04/05 04:15:57;;;;;;;23.85;19.88;;;;;;;;;;4938357;29;20047;-67
2022/04/05 04:18:28;;;;;;;27.77;19.50;;;;;;;;;;4923908;29;20040;-67
2022/04/05 04:20:59;;;;;;;19.85;17.85;;;;;;;;;;4957473;28;20186;-67
2022/04/05 04:23:28;;;;;;;25.52;18.35;;;;;;;;;;4956573;28;20185;-67
2022/04/05 04:25:58;;;;;;;18.20;16.30;;;;;;;;;;4956620;28;20503;-67
2022/04/05 04:28:28;;;;;;;17.92;16.13;;;;;;;;;;4951416;28;20570;-67
2022/04/05 04:30:56;;;;;;;18.83;16.75;;;;;;;;;;4938958;29;20051;-67
2022/04/05 04:33:24;;;;;;;19.88;17.77;;;;;;;;;;4939642;28;20059;-67
2022/04/05 04:35:53;;;;;;;20.85;18.65;;;;;;;;;;4952449;28;20051;-67
2022/04/05 04:38:21;;;;;;;19.02;17.08;;;;;;;;;;4947550;28;20055;-67
2022/04/05 04:40:51;;;;;;;19.15;16.98;;;;;;;;;;4941715;29;20097;-68
2022/04/05 04:43:19;;;;;;;20.42;18.33;;;;;;;;;;4944556;28;20062;-68
2022/04/05 04:45:49;;;;;;;19.73;17.38;;;;;;;;;;4954895;29;20142;-68
2022/04/05 04:48:19;;;;;;;19.70;17.35;;;;;;;;;;4939374;29;20048;-67
2022/04/05 04:50:48;;;;;;;24.00;19.23;;;;;;;;;;4938719;29;20054;-68
2022/04/05 04:53:16;;;;;;;25.33;19.02;;;;;;;;;;4939027;28;20110;-68
2022/04/05 04:55:46;;;;;;;21.67;19.48;;;;;;;;;;4952510;28;20079;-70
2022/04/05 04:58:32;;;;;;;22.35;19.88;;;;;;;;;;4955831;28;20050;-69
2022/04/05 05:01:00;;;;;;;26.60;19.77;;;;;;;;;;4957491;28;20459;-73
2022/04/05 05:03:30;;;;;;;23.20;20.15;;;;;;;;;;4956497;28;20062;-72
2022/04/05 05:05:59;;;;;;;23.13;20.67;;;;;;;;;;4957133;28;20139;-72
2022/04/05 05:08:28;;;;;;;24.13;21.70;;;;;;;;;;4957079;28;20043;-72
2022/04/05 05:10:59;;;;;;;22.65;19.85;;;;;;;;;;4957252;28;20047;-72
2022/04/05 05:13:28;;;;;;;23.33;20.95;;;;;;;;;;4957005;29;20082;-71
2022/04/05 05:15:59;;;;;;;24.27;21.25;;;;;;;;;;4957151;28;20062;-71
2022/04/05 05:18:27;;;;;;;26.95;21.73;;;;;;;;;;4956686;28;20051;-71
2022/04/05 05:21:02;;;;;;;21.95;19.45;;;;;;;;;;4958518;28;20055;-79
2022/04/05 05:23:45;;;;;;;22.05;19.77;;;;;;;;;;4958280;29;20047;-73
2022/04/05 05:26:15;;;;;;;22.42;20.13;;;;;;;;;;4957595;28;20171;-72
2022/04/05 05:28:44;;;;;;;26.45;19.35;;;;;;;;;;4955633;28;20051;-72
2022/04/05 05:31:13;;;;;;;20.70;17.60;;;;;;;;;;4944982;28;20044;-71
2022/04/05 05:33:42;;;;;;;19.98;17.95;;;;;;;;;;4943930;29;20058;-71
2022/04/05 05:36:11;;;;;;;24.73;17.15;;;;;;;;;;4948565;28;20044;-71
2022/04/05 05:38:40;;;;;;;20.92;18.83;;;;;;;;;;4944007;28;20062;-71
2022/04/05 05:41:09;;;;;;;22.25;17.52;;;;;;;;;;4953856;28;20396;-71
2022/04/05 05:43:40;;;;;;;21.55;19.23;;;;;;;;;;4946625;28;20499;-71
2022/04/05 05:46:13;;;;;;;23.25;17.15;;;;;;;;;;4950628;29;20062;-71
2022/04/05 05:48:41;;;;;;;21.00;16.40;;;;;;;;;;4944281;29;20484;-73
2022/04/05 05:51:10;;;;;;;22.65;16.65;;;;;;;;;;4945465;29;20055;-72
2022/04/05 05:53:41;;;;;;;22.58;15.77;;;;;;;;;;4944349;28;20090;-73
2022/04/05 05:56:09;;;;;;;17.67;14.73;;;;;;;;;;4949144;29;20487;-73
2022/04/05 05:58:38;;;;;;;18.50;14.45;;;;;;;;;;4946495;29;20078;-72
2022/04/05 06:01:07;;;;;;;15.30;12.15;;;;;;;;;;4943239;28;20054;-72
2022/04/05 06:03:36;;;;;;;14.63;12.70;;;;;;;;;;4942134;29;20114;-78
2022/04/05 06:06:10;;;;;;;15.95;13.20;;;;;;;;;;4948217;29;20126;-69
2022/04/05 06:08:41;;;;;;;14.48;12.73;;;;;;;;;;4948572;28;20055;-68
2022/04/05 06:11:12;;;;;;;18.23;12.10;;;;;;;;;;4954490;29;20051;-66
2022/04/05 06:13:44;;;;;;;15.55;11.75;;;;;;;;;;4949514;28;20134;-66
2022/04/05 06:16:14;;;;;;;15.63;12.48;;;;;;;;;;4946940;28;20055;-67
2022/04/05 06:18:43;;;;;;;16.35;11.77;;;;;;;;;;4948064;29;20558;-66
2022/04/05 06:21:11;;;;;;;11.68;10.52;;;;;;;;;;4942647;29;20487;-67
2022/04/05 06:23:40;;;;;;;15.13;11.18;;;;;;;;;;4946364;29;20066;-66
2022/04/05 06:26:11;;;;;;;19.33;11.98;;;;;;;;;;4945371;29;20055;-67
2022/04/05 06:28:42;;;;;;;10.95;9.85;;;;;;;;;;4950466;28;20157;-65
2022/04/05 06:31:13;;;;;;;17.65;11.63;;;;;;;;;;4947193;29;20047;-69
2022/04/05 06:33:44;;;;;;;17.98;11.40;;;;;;;;;;4948988;28;20511;-69
2022/04/05 06:36:14;;;;;;;16.35;12.57;;;;;;;;;;4949417;28;20043;-69
2022/04/05 06:38:43;;;;;;;13.40;11.98;;;;;;;;;;4952003;28;20055;-69
2022/04/05 06:41:19;;;;;;;10.88;9.75;;;;;;;;;;4944798;29;20055;-69
2022/04/05 06:43:47;;;;;;;29.33;10.43;;;;;;;;;;4942263;29;20087;-69
2022/04/05 06:46:18;;;;;;;10.88;9.40;;;;;;;;;;4945159;28;20060;-70
2022/04/05 06:48:46;;;;;;;14.25;9.30;;;;;;;;;;4938609;29;20055;-70
2022/04/05 06:51:16;;;;;;;12.70;9.45;;;;;;;;;;4945089;28;20052;-70
2022/04/05 06:53:44;;;;;;;11.55;9.20;;;;;;;;;;4943330;28;20101;-69
2022/04/05 06:56:13;;;;;;;10.98;9.50;;;;;;;;;;4946221;28;20483;-70
2022/04/05 06:58:43;;;;;;;21.60;10.85;;;;;;;;;;4943067;29;20066;-70
2022/04/05 07:01:11;;;;;;;14.30;9.27;;;;;;;;;;4951898;28;20117;-69
2022/04/05 07:03:40;;;;;;;12.27;8.27;;;;;;;;;;4948265;29;20059;-69
2022/04/05 07:06:08;;;;;;;11.52;9.10;;;;;;;;;;4945812;28;20055;-70
2022/04/05 07:08:37;;;;;;;10.30;9.23;;;;;;;;;;4945481;28;20054;-70
2022/04/05 07:11:05;;;;;;;12.80;8.63;;;;;;;;;;4946398;28;20400;-70
2022/04/05 07:13:33;;;;;;;14.20;8.98;;;;;;;;;;4944550;28;20059;-71
2022/04/05 07:16:03;;;;;;;15.82;8.10;;;;;;;;;;4947878;28;20056;-70
2022/04/05 07:18:33;;;;;;;11.82;8.02;;;;;;;;;;4942238;29;20112;-70
2022/04/05 07:21:04;;;;;;;14.68;9.40;;;;;;;;;;4942847;28;20055;-70
2022/04/05 07:23:32;;;;;;;12.73;9.10;;;;;;;;;;4942307;29;20062;-71
2022/04/05 07:26:02;;;;;;;14.50;10.05;;;;;;;;;;4940010;29;20051;-70
2022/04/05 07:28:30;;;;;;;14.18;9.43;;;;;;;;;;4948318;28;20070;-68
2022/04/05 07:30:58;;;;;;;12.55;9.45;;;;;;;;;;4947137;28;20054;-70
2022/04/05 07:33:26;;;;;;;24.70;11.43;;;;;;;;;;4947833;29;20039;-69
2022/04/05 07:35:55;;;;;;;11.98;9.07;;;;;;;;;;4946816;28;20697;-69
2022/04/05 07:38:24;;;;;;;18.98;9.90;;;;;;;;;;4946181;28;20048;-69
2022/04/05 07:40:53;;;;;;;20.10;11.63;;;;;;;;;;4954213;28;20051;-70
2022/04/05 07:43:25;;;;;;;16.67;11.18;;;;;;;;;;4948937;29;20146;-70
2022/04/05 07:45:56;;;;;;;15.98;10.43;;;;;;;;;;4950714;28;20427;-70
2022/04/05 07:48:28;;;;;;;21.30;12.80;;;;;;;;;;4952312;28;20487;-70
2022/04/05 07:50:55;;;;;;;15.63;10.13;;;;;;;;;;4952940;28;20516;-70
2022/04/05 07:53:24;;;;;;;15.40;11.00;;;;;;;;;;4952961;29;20094;-70
2022/04/05 07:55:56;;;;;;;14.70;11.10;;;;;;;;;;4954485;29;20122;-70
2022/04/05 07:58:25;;;;;;;14.38;9.07;;;;;;;;;;4948488;28;20126;-70
2022/04/05 08:00:53;;;;;;;20.10;11.95;;;;;;;;;;4948476;29;20103;-70
2022/04/05 08:03:23;;;;;;;17.17;11.45;;;;;;;;;;4951169;29;20138;-70
2022/04/05 08:05:52;;;;;;;15.63;11.93;;;;;;;;;;4950128;29;20047;-70
2022/04/05 08:08:20;;;;;;;20.15;11.32;;;;;;;;;;4950674;28;20110;-69
2022/04/05 08:11:07;;;;;;;18.90;11.15;;;;;;;;;;4941437;29;20098;-71
2022/04/05 08:13:36;;;;;;;15.63;10.50;;;;;;;;;;4949422;28;20078;-70
2022/04/05 08:16:06;;;;;;;20.50;12.57;;;;;;;;;;4943688;29;20410;-71
2022/04/05 08:18:35;;;;;;;16.13;11.43;;;;;;;;;;4941772;29;20071;-71
2022/04/05 08:21:04;;;;;;;17.95;11.98;;;;;;;;;;4951579;29;20047;-71
2022/04/05 08:23:33;;;;;;;15.55;10.70;;;;;;;;;;4942754;29;20063;-71
2022/04/05 08:26:06;;;;;;;16.63;10.85;;;;;;;;;;4944394;29;20562;-70
2022/04/05 08:28:37;;;;;;;18.40;11.68;;;;;;;;;;4952097;29;20051;-71
2022/04/05 08:31:06;;;;;;;18.42;12.82;;;;;;;;;;4949152;28;20475;-71
2022/04/05 08:33:35;;;;;;;16.92;11.00;;;;;;;;;;4940231;28;20435;-71
2022/04/05 08:36:04;;;;;;;15.27;12.15;;;;;;;;;;4939150;28;20047;-71
2022/04/05 08:38:33;;;;;;;18.65;11.00;;;;;;;;;;4945541;28;20106;-71
2022/04/05 08:41:05;;;;;;;21.90;14.13;;;;;;;;;;4938722;29;20052;-71
2022/04/05 08:43:36;;;;;;;17.98;11.32;;;;;;;;;;4938637;29;20059;-71
2022/04/05 08:46:06;;;;;;;14.82;11.75;;;;;;;;;;4938666;28;20818;-71
2022/04/05 08:48:35;;;;;;;15.00;13.27;;;;;;;;;;4939339;29;20051;-69
2022/04/05 08:51:06;;;;;;;15.45;11.73;;;;;;;;;;4938769;29;20407;-69
2022/04/05 08:53:38;;;;;;;14.85;11.10;;;;;;;;;;4938240;29;20475;-69
2022/04/05 08:56:08;;;;;;;60.90;19.17;;;;;;;;;;4954323;29;20126;-69
2022/04/05 08:58:38;;;;;;;14.68;12.13;;;;;;;;;;4956770;28;20136;-69
2022/04/05 09:01:06;;;;;;;19.25;11.48;;;;;;;;;;4957383;28;20066;-68
2022/04/05 09:03:35;;;;;;;13.77;11.85;;;;;;;;;;4946387;28;20056;-69
2022/04/05 09:06:27;;;;;;;13.93;11.27;;;;;;;;;;4938164;28;20051;-69
2022/04/05 09:09:13;;;;;;;16.23;12.23;;;;;;;;;;4938090;29;20087;-69
2022/04/05 09:11:44;;;;;;;14.00;11.43;;;;;;;;;;4938338;29;20052;-69
2022/04/05 09:14:30;;;;;;;14.55;11.65;;;;;;;;;;4938145;28;20055;-71
2022/04/05 09:17:12;;;;;;;15.95;11.82;;;;;;;;;;4938474;29;20503;-69
2022/04/05 09:19:45;;;;;;;15.77;12.27;;;;;;;;;;4944193;29;20507;-69
2022/04/05 09:22:13;;;;;;;14.60;11.93;;;;;;;;;;4937896;29;20098;-68
2022/04/05 09:24:45;;;;;;;15.73;11.98;;;;;;;;;;4938027;28;20055;-69
2022/04/05 09:27:14;;;;;;;18.05;11.40;;;;;;;;;;4952027;28;20131;-69
2022/04/05 09:29:51;;;;;;;13.65;12.23;;;;;;;;;;4940884;29;20070;-69
2022/04/05 09:32:37;;;;;;;12.93;9.90;;;;;;;;;;4952466;29;20053;-69
2022/04/05 09:35:06;;;;;;;14.48;10.70;;;;;;;;;;4956284;28;20513;-69
2022/04/05 09:37:38;;;;;;;11.07;9.95;;;;;;;;;;4951502;28;20056;-69
2022/04/05 09:40:35;;;;;;;14.30;11.68;;;;;;;;;;4937834;29;20062;-69
2022/04/05 09:43:24;;;;;;;16.55;11.60;;;;;;;;;;4937397;29;20051;-70
2022/04/05 09:45:58;;;;;;;14.18;11.07;;;;;;;;;;4952487;28;20130;-69
2022/04/05 09:48:31;;;;;;;21.88;11.88;;;;;;;;;;4955063;28;20063;-70
2022/04/05 09:51:00;;;;;;;15.13;10.77;;;;;;;;;;4956542;28;20507;-69
2022/04/05 09:53:41;;;;;;;12.18;10.25;;;;;;;;;;4955818;28;20442;-69
2022/04/05 09:56:28;;;;;;;12.85;10.02;;;;;;;;;;4955463;28;20414;-69
2022/04/05 09:59:04;;;;;;;12.43;9.77;;;;;;;;;;4955568;28;20501;-69
2022/04/05 10:01:33;;;;;;;11.27;9.73;;;;;;;;;;4941541;29;20047;-70
2022/04/05 10:04:13;;;;;;;12.18;10.45;;;;;;;;;;4955866;28;20054;-69
2022/04/05 10:06:44;;;;;;;10.95;9.80;;;;;;;;;;4937686;29;20055;-69
2022/04/05 10:09:16;;;;;;;10.68;8.52;;;;;;;;;;4948488;28;20051;-69
2022/04/05 10:11:45;;;;;;;13.85;9.27;;;;;;;;;;4936225;29;20472;-70
2022/04/05 10:14:20;;;;;;;11.15;9.13;;;;;;;;;;4936948;29;20098;-69
2022/04/05 10:16:49;;;;;;;;;;;;;;;;;;4937566;29;20438;-70
2022/04/05 10:19:22;;;;;;;13.20;9.88;;;;;;;;;;4936907;28;20327;-69
2022/04/05 10:21:52;;;;;;;13.55;9.90;;;;;;;;;;4936572;29;20412;-70
2022/04/05 10:24:21;;;;;;;12.25;10.38;;;;;;;;;;4937136;28;20060;-70
2022/04/05 10:26:54;;;;;;;14.88;9.25;;;;;;;;;;4936648;28;20143;-69
2022/04/05 10:29:25;;;;;;;11.63;10.13;;;;;;;;;;4936907;28;20080;-71
2022/04/05 10:32:07;;;;;;;10.55;9.45;;;;;;;;;;4946315;29;20099;-70
2022/04/05 10:34:55;;;;;;;10.15;9.10;;;;;;;;;;4954852;29;20047;-71
2022/04/05 10:37:34;;;;;;;10.90;8.85;;;;;;;;;;4952006;28;20078;-70
2022/04/05 10:40:03;;;;;;;10.20;9.20;;;;;;;;;;4954853;28;20054;-69
2022/04/05 10:42:41;;;;;;;11.52;8.48;;;;;;;;;;4954881;28;20051;-69
2022/04/05 10:45:29;;;;;;;12.25;9.90;;;;;;;;;;4954989;28;20474;-71
2022/04/05 10:48:25;;;;;;;8.75;7.85;;;;;;;;;;4954836;28;20106;-70
2022/04/05 10:51:00;;;;;;;10.13;9.13;;;;;;;;;;4954467;29;20047;-70
2022/04/05 10:53:37;;;;;;;11.65;9.18;;;;;;;;;;4954762;28;20515;-70
2022/04/05 10:56:09;;;;;;;10.40;9.20;;;;;;;;;;4955417;28;20098;-70
2022/04/05 10:59:05;;;;;;;9.65;8.75;;;;;;;;;;4954545;28;20380;-70
2022/04/05 11:01:45;;;;;;;10.45;9.40;;;;;;;;;;4953766;28;20044;-70
2022/04/05 11:04:18;;;;;;;10.20;9.20;;;;;;;;;;4936237;29;20055;-69
2022/04/05 11:07:01;;;;;;;13.77;9.18;;;;;;;;;;4943064;28;20055;-70
2022/04/05 11:09:35;;;;;;;9.77;8.82;;;;;;;;;;4936507;29;20063;-72
2022/04/05 11:12:16;;;;;;;13.48;8.40;;;;;;;;;;4943830;28;20047;-70
2022/04/05 11:14:49;;;;;;;9.60;8.60;;;;;;;;;;4952522;28;20055;-69
2022/04/05 11:17:20;;;;;;;12.48;7.78;;;;;;;;;;4944286;29;20063;-70
2022/04/05 11:19:52;;;;;;;11.73;10.15;;;;;;;;;;4936976;28;20500;-70
2022/04/05 11:22:20;;;;;;;11.82;10.38;;;;;;;;;;4936352;29;20048;-70
2022/04/05 11:25:09;;;;;;;10.52;9.38;;;;;;;;;;4936333;29;20130;-70
2022/04/05 11:27:46;;;;;;;10.45;9.10;;;;;;;;;;4936210;29;20063;-70
2022/04/05 11:30:37;;;;;;;12.60;8.75;;;;;;;;;;4947317;29;20146;-70
2022/04/05 11:33:30;;;;;;;9.95;8.95;;;;;;;;;;4954726;28;20067;-70
2022/04/05 11:36:02;;;;;;;9.32;8.25;;;;;;;;;;4954570;28;20047;-69
2022/04/05 11:38:34;;;;;;;9.80;8.85;;;;;;;;;;4943160;29;20048;-70
2022/04/05 11:41:11;;;;;;;13.10;9.02;;;;;;;;;;4940961;29;20053;-71
2022/04/05 11:43:45;;;;;;;10.75;9.68;;;;;;;;;;4954121;28;20125;-71
2022/04/05 11:46:22;;;;;;;9.13;8.23;;;;;;;;;;4954883;28;20055;-71
2022/04/05 11:49:11;;;;;;;10.13;9.20;;;;;;;;;;4953325;29;20101;-71
2022/04/05 11:51:46;;;;;;;10.55;8.70;;;;;;;;;;4954074;28;20055;-71
2022/04/05 11:54:24;;;;;;;12.60;9.10;;;;;;;;;;4953583;29;20122;-72
2022/04/05 11:56:54;;;;;;;10.50;9.40;;;;;;;;;;4954287;28;20055;-72
2022/04/05 11:59:27;;;;;;;9.15;8.25;;;;;;;;;;4954094;28;20091;-71
2022/04/05 12:01:55;;;;;;;12.85;9.27;;;;;;;;;;4953383;29;20082;-72
2022/04/05 12:04:25;;;;;;;11.23;8.70;;;;;;;;;;4952019;28;20178;-72
2022/04/05 12:07:01;;;;;;;11.40;9.23;;;;;;;;;;4937062;29;20051;-71
2022/04/05 12:09:32;;;;;;;13.48;8.90;;;;;;;;;;4935162;29;20052;-71
2022/04/05 12:12:03;;;;;;;14.75;9.43;;;;;;;;;;4944201;28;20059;-71
2022/04/05 12:14:33;;;;;;;9.25;8.32;;;;;;;;;;4938876;29;20052;-71
2022/04/05 12:17:03;;;;;;;11.07;8.60;;;;;;;;;;4946316;29;20043;-72
2022/04/05 12:19:35;;;;;;;10.05;8.35;;;;;;;;;;4940739;29;20499;-71
2022/04/05 12:22:07;;;;;;;9.80;8.50;;;;;;;;;;4943089;29;20388;-72
2022/04/05 12:24:40;;;;;;;17.45;9.68;;;;;;;;;;4944513;29;20130;-72
2022/04/05 12:27:09;;;;;;;10.63;9.50;;;;;;;;;;4942635;28;20060;-71
2022/04/05 12:29:42;;;;;;;11.70;9.20;;;;;;;;;;4939719;29;20036;-72
2022/04/05 12:32:12;;;;;;;12.43;8.93;;;;;;;;;;4946945;28;20054;-71
2022/04/05 12:34:41;;;;;;;12.07;8.77;;;;;;;;;;4939729;29;20090;-72
2022/04/05 12:37:14;;;;;;;15.20;8.95;;;;;;;;;;4940927;29;20069;-72
2022/04/05 12:39:50;;;;;;;11.80;9.38;;;;;;;;;;4939573;29;20090;-70
2022/04/05 12:42:20;;;;;;;10.75;9.23;;;;;;;;;;4943280;29;20059;-71
2022/04/05 12:44:59;;;;;;;13.27;10.30;;;;;;;;;;4940091;29;20059;-71
2022/04/05 12:47:29;;;;;;;11.55;10.43;;;;;;;;;;4939765;29;20054;-71
2022/04/05 12:50:04;;;;;;;10.23;7.88;;;;;;;;;;4942135;29;20051;-71
2022/04/05 12:52:35;;;;;;;12.75;9.57;;;;;;;;;;4943561;29;20119;-71
2022/04/05 12:55:05;;;;;;;11.18;9.60;;;;;;;;;;4942940;29;20048;-71
2022/04/05 12:57:35;;;;;;;9.60;7.90;;;;;;;;;;4940420;28;20058;-71
2022/04/05 13:00:09;;;;;;;11.00;9.32;;;;;;;;;;4939829;28;20066;-72
2022/04/05 13:02:47;;;;;;;14.18;9.15;;;;;;;;;;4942188;28;20048;-71
2022/04/05 13:08:28;;;;;;;16.75;9.60;;;;;;;;;;4939673;29;20046;-71
2022/04/05 13:10:59;;;;;;;12.18;9.55;;;;;;;;;;4937739;29;20127;-70
2022/04/05 13:13:37;;;;;;;11.38;8.65;;;;;;;;;;4946951;29;20491;-70
2022/04/05 13:16:05;;;;;;;10.48;8.55;;;;;;;;;;4956696;28;20142;-71
2022/04/05 13:18:41;;;;;;;10.35;9.27;;;;;;;;;;4956483;29;20106;-71
2022/04/05 13:21:17;;;;;;;10.82;9.05;;;;;;;;;;4957155;28;20427;-71
2022/04/05 13:24:05;;;;;;;12.20;8.68;;;;;;;;;;4954733;28;20062;-70
2022/04/05 13:27:01;;;;;;;10.27;9.25;;;;;;;;;;4956657;28;20055;-71
2022/04/05 13:29:30;;;;;;;13.52;11.07;;;;;;;;;;4954938;28;20462;-70
2022/04/05 13:32:07;;;;;;;11.55;10.30;;;;;;;;;;4938496;28;20059;-70
2022/04/05 13:34:53;;;;;;;11.90;10.60;;;;;;;;;;4935657;29;20052;-70
2022/04/05 13:37:24;;;;;;;10.98;9.43;;;;;;;;;;4940826;29;20051;-70
2022/04/05 13:39:58;;;;;;;12.02;10.00;;;;;;;;;;4942087;29;20063;-71
2022/04/05 13:42:42;;;;;;;11.02;10.02;;;;;;;;;;4942320;29;20087;-70
2022/04/05 13:45:09;;;;;;;17.92;10.52;;;;;;;;;;4943638;29;20126;-70
2022/04/05 13:47:38;;;;;;;13.55;10.98;;;;;;;;;;4944330;28;20111;-70
2022/04/05 13:50:08;;;;;;;12.88;10.45;;;;;;;;;;4947019;29;20058;-70
2022/04/05 13:52:37;;;;;;;12.00;10.80;;;;;;;;;;4950063;28;20503;-72
2022/04/05 13:55:07;;;;;;;13.18;11.15;;;;;;;;;;4941112;29;20130;-71
2022/04/05 13:57:35;;;;;;;13.50;11.50;;;;;;;;;;4949205;29;20110;-70
2022/04/05 14:00:09;;;;;;;12.25;11.13;;;;;;;;;;4940356;29;20075;-70
2022/04/05 14:02:38;;;;;;;17.90;13.10;;;;;;;;;;4945678;29;20454;-70
2022/04/05 14:05:08;;;;;;;14.55;12.00;;;;;;;;;;4935566;29;20062;-70
2022/04/05 14:07:38;;;;;;;13.02;11.70;;;;;;;;;;4942418;29;20051;-71
2022/04/05 14:10:07;;;;;;;13.32;11.40;;;;;;;;;;4936238;28;20047;-70
2022/04/05 14:12:35;;;;;;;14.13;12.63;;;;;;;;;;4948226;28;20054;-70
2022/04/05 14:15:05;;;;;;;14.38;13.02;;;;;;;;;;4953552;29;20059;-70
2022/04/05 14:17:42;;;;;;;19.98;17.63;;;;;;;;;;4954185;29;20110;-70
2022/04/05 14:20:12;;;;;;;16.88;11.82;;;;;;;;;;4952988;29;20455;-70
2022/04/05 14:22:59;;;;;;;14.82;12.57;;;;;;;;;;4954963;28;20077;-70
2022/04/05 14:25:47;;;;;;;15.82;12.95;;;;;;;;;;4950550;29;20502;-70
2022/04/05 14:28:16;;;;;;;15.25;12.98;;;;;;;;;;4947158;29;20073;-70
2022/04/05 14:30:44;;;;;;;13.02;11.85;;;;;;;;;;4948566;28;20047;-70
2022/04/05 14:33:12;;;;;;;17.38;13.25;;;;;;;;;;4936826;29;20064;-70
2022/04/05 14:35:41;;;;;;;14.98;12.32;;;;;;;;;;4935642;29;20040;-70
2022/04/05 14:38:11;;;;;;;17.80;12.05;;;;;;;;;;4943475;29;20080;-70
2022/04/05 14:40:39;;;;;;;16.35;12.13;;;;;;;;;;4936264;29;20047;-70
2022/04/05 14:43:07;;;;;;;14.50;12.77;;;;;;;;;;4936678;28;20138;-69
2022/04/05 14:45:40;;;;;;;13.13;11.65;;;;;;;;;;4936471;29;20083;-70
2022/04/05 14:48:10;;;;;;;14.98;13.35;;;;;;;;;;4936806;28;20055;-70
2022/04/05 14:50:39;;;;;;;16.73;13.15;;;;;;;;;;4934843;29;20079;-70
2022/04/05 14:53:21;;;;;;;14.88;13.07;;;;;;;;;;4936520;28;20060;-69